METAR AND TAF INFORMATION
METAR FOR HCMM
ADDS - METARS form results

(1122 UTC 19 January 2019)
Data provider http://aviationweather.gov/metar/data/
 
METAR text: HCMM 191100Z 08017KT 9999 FEW027 29/21 Q1009
Conditions at: HCMM (MOGADISHU , SO) observed 1100 UTC 19 January 2019
Temperature: 29.0°C (84°F)
Dewpoint: 21.0°C (70°F) [RH = 62%]
Pressure (altimeter): 29.79 inches Hg (1009.0 mb)
Winds: from the E (80 degrees) at 20 MPH (17 knots; 8.7 m/s)
Visibility: 6 or more miles (10+ km)
Ceiling: at least 12,000 feet AGL
Clouds: few clouds at 2700 feet AGL
Weather: no significant weather observed at this time

 AIRPORT MAP

 RUNWAY INFORMATION
Runway 05 Runway length 10335 ft Runway width 0 ft
Runway elevation 13 ft Runway displaced threshold 0 ft Runway heading 0
Runway 23 Runway length 10335 ft Runway width 0 ft
Runway elevation 30 ft Runway displaced threshold 0 ft Runway heading 0

 AIRPORT FREQUENCIES
Type APPROACH / Name Frequency 132.5 MHZ

 AIRPORT NEAR NAVIGATION AIDS



Powered by Virtual Airlines Manager [v2.6.2]